Time;durP1;ratioP1;P1;durP2;ratioP2;P2;SDS_P1;SDS_P2;PMS_P1;PMS_P2;Temp;Humidity;BMP_temperature;BMP_pressure;BME280_temperature;BME280_humidity;BME280_pressure;Samples;Min_cycle;Max_cycle;Signal;HPM_P1;HPM_P2
2023/05/09 00:01:14;;;;;;;6.05;4.60;;;;;;;20.71;53.64;96491.63;5033729;28;20021;-29
2023/05/09 00:03:41;;;;;;;5.38;4.57;;;;;;;20.96;53.12;96489.25;5034576;28;20366;-30
2023/05/09 00:06:07;;;;;;;6.55;4.50;;;;;;;20.87;53.08;96481.19;5034350;28;20021;-29
2023/05/09 00:08:33;;;;;;;6.30;4.55;;;;;;;20.96;52.92;96484.50;5034551;28;20022;-29
2023/05/09 00:10:58;;;;;;;4.88;4.30;;;;;;;20.98;52.72;96478.50;5034534;28;20013;-29
2023/05/09 00:13:24;;;;;;;4.95;4.28;;;;;;;20.92;52.69;96478.44;5034138;28;20029;-29
2023/05/09 00:15:52;;;;;;;5.45;4.65;;;;;;;20.95;52.60;96479.47;5034587;28;20041;-29
2023/05/09 00:18:19;;;;;;;6.75;4.60;;;;;;;21.11;52.15;96471.28;5034258;28;20029;-29
2023/05/09 00:20:44;;;;;;;6.72;4.53;;;;;;;20.82;52.52;96474.38;5034255;28;20017;-29
2023/05/09 00:23:10;;;;;;;5.03;4.53;;;;;;;20.83;52.57;96473.16;5034053;28;20018;-30
2023/05/09 00:25:35;;;;;;;5.95;4.32;;;;;;;20.85;52.52;96467.16;5034159;28;20567;-31
2023/05/09 00:28:01;;;;;;;7.40;4.60;;;;;;;20.86;52.58;96472.16;5033818;28;20017;-29
2023/05/09 00:30:26;;;;;;;5.88;4.43;;;;;;;20.72;52.68;96481.34;5033924;28;20108;-29
2023/05/09 00:32:51;;;;;;;4.60;4.10;;;;;;;20.97;52.13;96471.47;5041683;28;20037;-29
2023/05/09 00:35:18;;;;;;;7.80;4.35;;;;;;;20.84;52.04;96474.66;5033895;28;20371;-30
2023/05/09 00:37:43;;;;;;;9.98;4.30;;;;;;;20.66;52.66;96469.53;5033741;28;20022;-29
2023/05/09 00:40:09;;;;;;;4.60;4.13;;;;;;;20.72;52.49;96468.31;5033745;28;20071;-29
2023/05/09 00:42:35;;;;;;;5.35;4.50;;;;;;;20.64;52.57;96463.78;5033937;28;20353;-29
2023/05/09 00:45:01;;;;;;;5.78;3.95;;;;;;;20.79;51.95;96470.63;5033676;28;20076;-29
2023/05/09 00:47:28;;;;;;;6.03;4.45;;;;;;;20.84;51.69;96465.63;5033873;28;20055;-29
2023/05/09 00:49:55;;;;;;;7.82;4.28;;;;;;;20.81;52.04;96467.38;5033944;28;20143;-29
2023/05/09 00:52:24;;;;;;;6.75;4.25;;;;;;;20.80;51.79;96461.09;5033560;28;20017;-29
2023/05/09 00:54:54;;;;;;;5.68;4.15;;;;;;;20.75;51.96;96458.31;5033394;28;20476;-29
2023/05/09 00:57:20;;;;;;;5.95;4.28;;;;;;;20.73;51.79;96460.81;5040739;28;20465;-29
2023/05/09 00:59:46;;;;;;;5.45;4.60;;;;;;;20.72;51.95;96465.56;5033416;28;20083;-29
2023/05/09 01:02:11;;;;;;;4.32;3.92;;;;;;;20.83;51.69;96464.88;5040420;28;20025;-29
2023/05/09 01:04:37;;;;;;;6.57;3.92;;;;;;;20.88;51.23;96452.38;5033207;28;20025;-30
2023/05/09 01:07:15;;;;;;;5.18;4.00;;;;;;;20.83;51.44;96456.59;5033080;28;20035;-29
2023/05/09 01:09:50;;;;;;;7.55;4.10;;;;;;;20.61;51.80;96454.50;5033949;28;20017;-29
2023/05/09 01:12:30;;;;;;;7.20;3.85;;;;;;;20.80;51.51;96460.34;5032511;28;20017;-30
2023/05/09 01:15:42;;;;;;;5.68;3.70;;;;;;;20.63;52.00;96452.00;5033450;28;20524;-29
2023/05/09 01:18:15;;;;;;;6.30;4.47;;;;;;;20.86;51.48;96450.13;5036186;28;20037;-29
2023/05/09 01:20:45;;;;;;;4.20;3.70;;;;;;;20.77;51.58;96455.84;5036001;28;20075;-29
2023/05/09 01:23:38;;;;;;;4.75;3.90;;;;;;;20.63;51.61;96459.50;5033312;28;20025;-29
2023/05/09 01:26:11;;;;;;;;;;;;;;;20.60;51.81;96461.25;5033385;28;20454;-29
2023/05/09 01:28:55;;;;;;;6.25;3.80;;;;;;;20.70;51.78;96453.53;5032967;28;20058;-30
2023/05/09 01:31:23;;;;;;;5.70;3.90;;;;;;;20.66;51.42;96455.75;5035446;28;20028;-30
2023/05/09 01:33:53;;;;;;;6.10;4.00;;;;;;;20.76;51.26;96460.59;5033000;28;20052;-28
2023/05/09 01:36:20;;;;;;;5.82;4.35;;;;;;;20.66;51.35;96455.75;5033056;28;20484;-29
2023/05/09 01:38:49;;;;;;;4.13;3.72;;;;;;;20.73;50.93;96460.81;5033205;28;20025;-29
2023/05/09 01:41:16;;;;;;;4.82;4.20;;;;;;;20.84;50.74;96460.88;5033192;28;20413;-29
2023/05/09 01:43:45;;;;;;;5.10;3.53;;;;;;;20.85;50.65;96461.63;5032614;28;20033;-29
2023/05/09 01:46:11;;;;;;;4.35;3.95;;;;;;;20.63;50.88;96462.28;5039087;28;20029;-29
2023/05/09 01:48:40;;;;;;;6.88;3.85;;;;;;;20.71;50.69;96455.03;5032878;28;20033;-29
2023/05/09 01:51:08;;;;;;;6.22;4.00;;;;;;;20.55;51.08;96461.97;5039916;28;20511;-29
2023/05/09 01:53:34;;;;;;;5.45;4.15;;;;;;;20.92;49.73;96461.16;5032670;28;20029;-29
2023/05/09 01:56:03;;;;;;;4.50;3.90;;;;;;;20.72;50.37;96454.56;5032772;28;20049;-30
2023/05/09 01:58:32;;;;;;;4.47;3.80;;;;;;;20.84;49.81;96460.88;5032603;28;20156;-29
2023/05/09 02:00:59;;;;;;;5.13;3.80;;;;;;;20.72;50.14;96464.81;5032850;28;20025;-30
2023/05/09 02:03:26;;;;;;;5.13;3.70;;;;;;;20.73;49.85;96458.06;5040424;28;20030;-29
2023/05/09 02:05:52;;;;;;;5.40;3.90;;;;;;;20.71;49.96;96455.03;5032420;28;20115;-29
2023/05/09 02:08:20;;;;;;;6.30;3.88;;;;;;;20.74;49.56;96452.06;5033124;28;20013;-29
2023/05/09 02:10:47;;;;;;;5.50;4.07;;;;;;;20.79;49.14;96454.06;5033079;28;20044;-29
2023/05/09 02:13:13;;;;;;;5.38;3.60;;;;;;;20.87;48.71;96453.63;5032904;28;20416;-29
2023/05/09 02:15:38;;;;;;;5.88;3.70;;;;;;;20.65;49.10;96454.25;5032738;28;20013;-29
2023/05/09 02:18:04;;;;;;;7.22;4.53;;;;;;;20.76;48.55;96460.59;5032792;28;20037;-29
2023/05/09 02:20:29;;;;;;;4.95;3.70;;;;;;;20.83;48.45;96459.38;5032717;28;20024;-30
2023/05/09 02:22:55;;;;;;;4.50;3.30;;;;;;;20.74;48.52;96454.06;5034033;28;20021;-29
2023/05/09 02:25:21;;;;;;;4.00;3.60;;;;;;;20.90;47.88;96445.09;5036451;28;20024;-29
2023/05/09 02:27:46;;;;;;;3.97;3.40;;;;;;;20.86;48.06;96452.88;5036689;28;20574;-29
2023/05/09 02:30:19;;;;;;;5.07;3.58;;;;;;;20.85;48.00;96458.88;5036042;28;20018;-29
2023/05/09 02:32:49;;;;;;;4.70;3.83;;;;;;;20.73;47.65;96450.56;5036145;28;20021;-29
2023/05/09 02:35:17;;;;;;;6.28;4.07;;;;;;;20.78;47.97;96457.31;5034856;28;20017;-29
2023/05/09 02:37:44;;;;;;;5.57;3.55;;;;;;;20.72;47.80;96460.06;5036047;28;20030;-29
2023/05/09 02:40:10;;;;;;;4.20;3.45;;;;;;;20.89;47.58;96468.44;5036102;28;20091;-29
2023/05/09 02:42:36;;;;;;;5.15;3.92;;;;;;;20.69;48.45;96463.78;5036031;28;20427;-30
2023/05/09 02:45:02;;;;;;;3.75;3.38;;;;;;;20.84;47.45;96460.88;5035928;28;20035;-29
2023/05/09 02:47:27;;;;;;;4.25;3.85;;;;;;;20.77;48.06;96455.84;5036076;28;20025;-29
2023/05/09 02:49:53;;;;;;;4.07;3.40;;;;;;;20.80;47.49;96455.59;5035564;28;20021;-29
2023/05/09 02:52:18;;;;;;;4.38;3.55;;;;;;;20.75;47.67;96448.06;5043345;28;20385;-29
2023/05/09 02:54:44;;;;;;;4.22;3.75;;;;;;;20.66;47.67;96447.47;5035697;28;20411;-29
2023/05/09 02:57:10;;;;;;;3.88;3.35;;;;;;;20.68;47.74;96447.75;5034618;28;20615;-29
2023/05/09 02:59:36;;;;;;;6.13;3.80;;;;;;;20.77;47.69;96450.31;5035744;28;20067;-30
2023/05/09 03:02:01;;;;;;;4.90;3.42;;;;;;;20.64;47.57;96453.50;5038695;28;20091;-29
2023/05/09 03:04:27;;;;;;;4.97;3.40;;;;;;;20.80;47.69;96446.56;5042576;28;20042;-29
2023/05/09 03:06:52;;;;;;;5.63;3.60;;;;;;;20.63;47.44;96452.00;5035657;28;20380;-29
2023/05/09 03:09:18;;;;;;;4.55;3.67;;;;;;;20.60;47.95;96441.97;5036214;28;20017;-30
2023/05/09 03:11:43;;;;;;;4.47;3.53;;;;;;;20.77;47.49;96447.56;5048386;28;20116;-30
2023/05/09 03:14:10;;;;;;;5.70;4.00;;;;;;;20.54;48.27;96451.41;5035886;28;20025;-28
2023/05/09 03:16:35;;;;;;;4.03;3.30;;;;;;;20.80;47.45;96444.56;5041968;28;20025;-29
2023/05/09 03:19:02;;;;;;;4.07;3.67;;;;;;;20.62;47.75;96449.72;5035236;28;20491;-29
2023/05/09 03:21:27;;;;;;;4.28;3.47;;;;;;;20.81;47.33;96456.34;5035382;28;20033;-29
2023/05/09 03:23:53;;;;;;;3.45;3.00;;;;;;;20.78;47.31;96457.31;5035389;28;20024;-31
2023/05/09 03:26:18;;;;;;;6.63;3.92;;;;;;;20.77;47.41;96453.09;5035310;28;20013;-29
2023/05/09 03:28:44;;;;;;;5.32;3.78;;;;;;;20.81;47.24;96450.81;5040274;28;20049;-29
2023/05/09 03:31:10;;;;;;;7.57;3.85;;;;;;;20.73;47.13;96453.31;5035176;28;20445;-29
2023/05/09 03:33:35;;;;;;;5.15;3.65;;;;;;;20.64;47.36;96455.50;5034720;28;20022;-29
2023/05/09 03:36:01;;;;;;;4.55;3.40;;;;;;;20.85;47.00;96456.13;5034526;28;20014;-29
2023/05/09 03:38:26;;;;;;;4.00;3.60;;;;;;;20.88;47.03;96452.38;5034958;28;20025;-30
2023/05/09 03:40:54;;;;;;;4.07;3.22;;;;;;;20.66;47.40;96451.00;5034892;28;20190;-29
2023/05/09 03:43:20;;;;;;;5.22;3.65;;;;;;;20.68;46.91;96453.25;5034800;28;20021;-31
2023/05/09 03:45:45;;;;;;;4.03;3.50;;;;;;;20.72;46.99;96456.56;5034678;28;20033;-30
2023/05/09 03:48:10;;;;;;;4.97;3.22;;;;;;;20.83;46.70;96456.59;5034669;28;20492;-30
2023/05/09 03:50:36;;;;;;;4.25;3.42;;;;;;;20.74;47.29;96462.34;5040625;28;20028;-29
2023/05/09 03:53:03;;;;;;;4.93;3.30;;;;;;;20.75;46.91;96461.84;5035597;28;20052;-29
2023/05/09 03:55:29;;;;;;;4.28;3.30;;;;;;;20.63;47.29;96460.28;5034608;28;20037;-29
2023/05/09 03:57:54;;;;;;;4.15;3.40;;;;;;;20.62;47.21;96461.50;5034351;28;20033;-29
2023/05/09 04:00:21;;;;;;;3.90;3.30;;;;;;;20.68;46.96;96464.28;5034589;28;20043;-29
2023/05/09 04:02:47;;;;;;;4.47;3.50;;;;;;;20.74;46.84;96465.09;5034452;28;20072;-29
2023/05/09 04:05:13;;;;;;;6.22;3.95;;;;;;;20.62;46.96;96458.75;5034324;28;20468;-29
2023/05/09 04:07:39;;;;;;;4.35;3.40;;;;;;;20.75;46.46;96469.34;5034549;28;20029;-29
2023/05/09 04:10:05;;;;;;;5.53;3.20;;;;;;;20.47;47.24;96471.16;5034512;28;20090;-29
2023/05/09 04:12:30;;;;;;;5.88;3.75;;;;;;;20.67;47.02;96462.78;5034247;28;20109;-29
2023/05/09 04:14:56;;;;;;;5.18;3.65;;;;;;;20.61;46.79;96467.50;5034288;28;20096;-29
2023/05/09 04:17:21;;;;;;;4.15;3.30;;;;;;;20.67;46.80;96463.53;5034147;28;20024;-30
2023/05/09 04:19:47;;;;;;;4.07;3.28;;;;;;;20.57;47.12;96462.22;5034212;28;20036;-29
2023/05/09 04:22:12;;;;;;;4.60;3.40;;;;;;;20.72;46.62;96460.06;5034191;28;20400;-29
2023/05/09 04:24:37;;;;;;;4.38;3.20;;;;;;;20.47;46.84;96460.16;5034031;28;20392;-29
2023/05/09 04:27:03;;;;;;;5.65;3.47;;;;;;;20.46;46.94;96464.16;5034307;28;20021;-29
2023/05/09 04:29:28;;;;;;;6.43;3.80;;;;;;;20.57;47.10;96461.47;5034187;28;20021;-30
2023/05/09 04:31:54;;;;;;;5.00;3.60;;;;;;;20.48;47.03;96462.41;5041767;28;20115;-29
2023/05/09 04:34:19;;;;;;;4.75;3.15;;;;;;;20.48;47.33;96475.44;5034042;28;20068;-29
2023/05/09 04:36:45;;;;;;;4.00;3.30;;;;;;;20.64;46.80;96481.06;5034409;28;20064;-29
2023/05/09 04:39:11;;;;;;;4.90;3.45;;;;;;;20.49;47.08;96479.72;5033859;28;20029;-30
2023/05/09 04:41:36;;;;;;;3.47;3.13;;;;;;;20.56;47.05;96473.72;5032495;28;20029;-29
2023/05/09 04:44:02;;;;;;;4.68;3.47;;;;;;;20.60;46.92;96479.78;5034307;28;20495;-29
2023/05/09 04:46:27;;;;;;;3.97;3.25;;;;;;;20.59;46.96;96481.78;5033346;28;20058;-29
2023/05/09 04:48:53;;;;;;;5.53;3.85;;;;;;;20.47;47.18;96491.22;5033568;28;20031;-29
2023/05/09 04:51:18;;;;;;;5.47;3.22;;;;;;;20.51;47.65;96482.72;5041072;28;20029;-29
2023/05/09 04:53:44;;;;;;;5.35;3.30;;;;;;;20.59;47.27;96489.28;5033517;28;20033;-29
2023/05/09 04:56:09;;;;;;;4.00;3.42;;;;;;;20.53;47.51;96491.25;5032991;28;20041;-30
2023/05/09 04:58:37;;;;;;;6.05;3.30;;;;;;;20.59;47.06;96486.53;5033481;28;20052;-30
2023/05/09 05:01:04;;;;;;;3.63;3.22;;;;;;;20.42;47.66;96494.66;5033352;28;20036;-29
2023/05/09 05:03:29;;;;;;;4.65;3.47;;;;;;;20.55;47.76;96488.75;5033239;28;20032;-29
2023/05/09 05:05:55;;;;;;;3.33;3.03;;;;;;;20.61;47.61;96487.56;5033456;28;20025;-29
2023/05/09 05:08:20;;;;;;;4.68;3.55;;;;;;;20.58;47.29;96487.78;5037204;28;20018;-29
2023/05/09 05:10:47;;;;;;;4.85;3.20;;;;;;;20.59;47.61;96492.78;5033639;28;20385;-29
2023/05/09 05:13:13;;;;;;;6.90;3.05;;;;;;;20.71;47.54;96497.13;5033495;28;20028;-29
2023/05/09 05:15:38;;;;;;;4.13;3.10;;;;;;;20.63;47.72;96498.09;5033284;28;20017;-28
2023/05/09 05:18:04;;;;;;;4.63;3.17;;;;;;;20.56;48.21;96495.78;5033317;28;20377;-29
2023/05/09 05:20:32;;;;;;;4.05;2.97;;;;;;;20.66;47.90;96503.34;5033313;28;20033;-29
2023/05/09 05:22:58;;;;;;;4.40;3.03;;;;;;;20.67;47.84;96506.88;5036972;28;20025;-29
2023/05/09 05:25:25;;;;;;;5.65;3.20;;;;;;;20.71;47.78;96515.66;5032835;28;20036;-29
2023/05/09 05:27:51;;;;;;;4.88;3.08;;;;;;;20.60;48.05;96513.59;5040433;28;20540;-31
2023/05/09 05:30:17;;;;;;;3.78;3.33;;;;;;;20.52;48.50;96514.53;5033143;28;20125;-30
2023/05/09 05:32:42;;;;;;;3.45;3.00;;;;;;;20.82;47.93;96515.72;5032858;28;20029;-29
2023/05/09 05:35:10;;;;;;;5.95;3.05;;;;;;;20.64;48.26;96518.88;5036123;28;20105;-29
2023/05/09 05:37:37;;;;;;;5.00;3.25;;;;;;;20.62;48.35;96521.38;5033208;28;20049;-30
2023/05/09 05:40:04;;;;;;;6.72;3.30;;;;;;;20.58;48.55;96513.31;5040620;28;20025;-29
2023/05/09 05:42:29;;;;;;;3.63;3.00;;;;;;;20.65;48.48;96512.09;5033660;28;20026;-29
2023/05/09 05:44:55;;;;;;;4.53;3.13;;;;;;;20.77;48.32;96516.47;5032556;28;20053;-29
2023/05/09 05:47:20;;;;;;;4.38;2.90;;;;;;;20.76;48.42;96518.47;5033139;28;20473;-29
2023/05/09 05:49:46;;;;;;;3.22;2.75;;;;;;;20.66;48.60;96514.38;5033097;28;20033;-29
2023/05/09 05:52:11;;;;;;;4.05;2.90;;;;;;;20.70;48.56;96514.91;5033442;28;20025;-29
2023/05/09 05:54:36;;;;;;;5.63;3.00;;;;;;;20.53;49.24;96513.28;5032808;28;20017;-29
2023/05/09 05:57:02;;;;;;;4.50;2.92;;;;;;;20.64;48.82;96511.38;5032858;28;20033;-29
2023/05/09 05:59:27;;;;;;;4.18;3.17;;;;;;;20.63;48.88;96509.88;5037037;28;20032;-29
2023/05/09 06:01:53;;;;;;;3.97;2.90;;;;;;;20.74;48.83;96514.69;5037066;28;20029;-30
2023/05/09 06:04:18;;;;;;;4.25;2.80;;;;;;;20.81;48.53;96511.47;5036894;28;20057;-29
2023/05/09 06:06:45;;;;;;;4.80;3.03;;;;;;;20.65;48.85;96514.88;5036498;28;20112;-29
2023/05/09 06:09:10;;;;;;;3.85;3.08;;;;;;;20.79;48.57;96522.22;5036570;28;20499;-29
2023/05/09 06:11:35;;;;;;;3.55;3.22;;;;;;;20.64;48.84;96524.41;5036856;28;20056;-29
2023/05/09 06:14:01;;;;;;;5.68;2.97;;;;;;;20.62;49.10;96526.88;5036561;28;20053;-29
2023/05/09 06:16:26;;;;;;;3.45;3.03;;;;;;;20.71;48.87;96512.91;5036778;28;20017;-29
2023/05/09 06:18:52;;;;;;;4.75;3.10;;;;;;;20.88;48.54;96507.50;5036374;28;20108;-29
2023/05/09 06:21:17;;;;;;;4.35;2.60;;;;;;;20.67;49.09;96507.63;5036330;28;20021;-29
2023/05/09 06:23:43;;;;;;;6.45;3.50;;;;;;;20.70;48.89;96505.88;5036539;28;20021;-29
2023/05/09 06:26:08;;;;;;;4.05;2.83;;;;;;;20.71;48.76;96512.91;5036600;28;20037;-29
2023/05/09 06:28:33;;;;;;;3.92;2.92;;;;;;;20.80;48.89;96507.19;5035007;28;20033;-29
2023/05/09 06:31:00;;;;;;;4.85;3.28;;;;;;;20.87;48.58;96504.00;5036652;28;20465;-29
2023/05/09 06:33:25;;;;;;;5.07;3.15;;;;;;;20.85;48.78;96506.50;5036805;28;20385;-30
2023/05/09 06:35:51;;;;;;;5.15;3.20;;;;;;;20.94;48.37;96511.03;5036178;28;20021;-29
2023/05/09 06:38:17;;;;;;;3.85;2.83;;;;;;;20.94;48.49;96503.53;5036460;28;20022;-29
2023/05/09 06:40:43;;;;;;;3.45;2.90;;;;;;;21.10;48.18;96510.38;5035994;28;20033;-29
2023/05/09 06:43:08;;;;;;;6.97;3.22;;;;;;;20.98;48.12;96506.81;5035955;28;20028;-29
2023/05/09 06:45:34;;;;;;;3.65;2.72;;;;;;;21.08;47.86;96502.59;5034647;28;20022;-29
2023/05/09 06:47:59;;;;;;;4.95;3.08;;;;;;;21.09;47.85;96504.09;5035893;28;20549;-29
2023/05/09 06:50:25;;;;;;;4.65;2.78;;;;;;;21.07;48.19;96501.09;5036356;28;20029;-29
2023/05/09 06:52:50;;;;;;;6.60;3.13;;;;;;;21.05;48.32;96500.81;5035800;28;20031;-29
2023/05/09 06:55:15;;;;;;;3.17;2.88;;;;;;;21.08;48.00;96502.59;5035553;28;20038;-29
2023/05/09 06:57:41;;;;;;;3.10;2.80;;;;;;;20.99;48.73;96504.81;5035644;28;20067;-29
2023/05/09 07:00:08;;;;;;;4.45;3.33;;;;;;;21.11;48.29;96504.38;5035542;28;20424;-29
2023/05/09 07:02:33;;;;;;;3.75;2.92;;;;;;;21.13;48.29;96504.63;5019651;28;20392;-29
2023/05/09 07:04:59;;;;;;;3.42;2.92;;;;;;;21.09;48.35;96500.59;5035668;28;20026;-29
2023/05/09 07:07:24;;;;;;;6.10;3.08;;;;;;;21.09;48.26;96508.88;5035621;28;20112;-29
2023/05/09 07:09:50;;;;;;;3.10;2.80;;;;;;;21.25;47.85;96493.69;5034227;28;20080;-29
2023/05/09 07:12:15;;;;;;;5.07;2.78;;;;;;;21.11;48.23;96498.84;5034235;28;20028;-29
2023/05/09 07:14:41;;;;;;;3.00;2.47;;;;;;;21.21;47.80;96495.91;5035357;28;20025;-29
2023/05/09 07:17:07;;;;;;;3.70;2.65;;;;;;;21.24;47.69;96498.44;5042999;28;20021;-30
2023/05/09 07:19:33;;;;;;;4.38;2.90;;;;;;;21.23;47.99;96501.69;5035393;28;20473;-28
2023/05/09 07:21:58;;;;;;;4.22;2.63;;;;;;;21.28;47.95;96495.44;5039050;28;20025;-30
2023/05/09 07:24:24;;;;;;;5.88;3.60;;;;;;;21.38;47.42;96502.25;5035441;28;20025;-29
2023/05/09 07:26:49;;;;;;;4.05;3.35;;;;;;;21.19;47.73;96501.16;5035042;28;20021;-29
2023/05/09 07:29:16;;;;;;;5.40;3.50;;;;;;;21.32;47.78;96490.44;5035219;28;20109;-29
2023/05/09 07:31:41;;;;;;;5.60;2.85;;;;;;;21.22;47.82;96497.41;5035561;28;20108;-29
2023/05/09 07:34:07;;;;;;;9.55;3.05;;;;;;;21.27;48.00;96496.66;5041831;28;20109;-29
2023/05/09 07:36:33;;;;;;;3.92;3.15;;;;;;;21.43;47.55;96498.75;5034806;28;20041;-31
2023/05/09 07:38:59;;;;;;;4.57;3.00;;;;;;;21.44;47.55;96491.97;5042443;28;20053;-30
2023/05/09 07:41:25;;;;;;;18.98;3.20;;;;;;;21.41;47.73;96501.25;5034857;28;20067;-30
2023/05/09 07:43:51;;;;;;;28.17;4.30;;;;;;;21.31;47.89;96499.97;5037668;28;20117;-29
2023/05/09 07:46:16;;;;;;;16.42;4.25;;;;;;;21.44;47.48;96498.25;5035174;28;20097;-29
2023/05/09 07:48:42;;;;;;;29.25;3.65;;;;;;;21.46;47.16;96497.75;5034839;28;20029;-29
2023/05/09 07:51:09;;;;;;;12.70;4.07;;;;;;;21.42;47.33;96488.97;5035023;28;20496;-29
2023/05/09 07:53:34;;;;;;;15.00;3.75;;;;;;;21.42;47.46;96500.00;5034962;28;20027;-29
2023/05/09 07:55:59;;;;;;;11.80;3.50;;;;;;;21.45;47.22;96491.50;5034520;28;20116;-29
2023/05/09 07:58:25;;;;;;;8.13;4.35;;;;;;;21.47;46.77;96494.50;5034885;28;20021;-31
2023/05/09 08:00:50;;;;;;;10.20;4.38;;;;;;;21.57;46.70;96495.03;5034833;28;20067;-29
2023/05/09 08:03:16;;;;;;;10.27;3.42;;;;;;;21.51;46.37;96494.28;5034286;28;20029;-29
2023/05/09 08:05:41;;;;;;;4.88;3.13;;;;;;;21.54;46.13;96495.25;5034399;28;20079;-29
2023/05/09 08:08:07;;;;;;;8.63;3.47;;;;;;;21.60;46.47;96496.81;5034403;28;20070;-29
2023/05/09 08:10:32;;;;;;;9.38;4.07;;;;;;;21.44;46.60;96497.50;5034331;28;20021;-29
2023/05/09 08:12:58;;;;;;;6.80;3.00;;;;;;;21.52;46.32;96495.75;5034236;28;20025;-30
2023/05/09 08:15:24;;;;;;;7.50;3.15;;;;;;;21.69;46.20;96488.28;5034470;28;20449;-29
2023/05/09 08:17:50;;;;;;;7.18;2.90;;;;;;;21.69;46.08;96488.28;5034119;28;20151;-29
2023/05/09 08:20:16;;;;;;;8.95;3.92;;;;;;;21.58;46.08;96488.25;5033783;28;20108;-30
2023/05/09 08:22:41;;;;;;;7.50;3.20;;;;;;;21.76;45.95;96487.78;5041280;28;20045;-29
2023/05/09 08:25:07;;;;;;;7.40;3.00;;;;;;;21.75;45.95;96494.59;5034130;28;20018;-29
2023/05/09 08:27:33;;;;;;;6.28;3.55;;;;;;;21.65;45.79;96500.81;5034165;28;20037;-29
2023/05/09 08:29:58;;;;;;;7.20;3.70;;;;;;;21.61;45.86;96503.84;5034026;28;20025;-29
2023/05/09 08:32:24;;;;;;;5.32;3.08;;;;;;;21.70;45.89;96500.84;5040879;28;20029;-30
2023/05/09 08:34:49;;;;;;;5.97;3.28;;;;;;;21.67;45.98;96501.81;5034346;28;20080;-30
2023/05/09 08:37:15;;;;;;;6.65;3.10;;;;;;;21.66;46.11;96503.06;5034340;28;20037;-29
2023/05/09 08:39:41;;;;;;;4.97;3.08;;;;;;;21.55;46.35;96503.06;5033996;28;20025;-29
2023/05/09 08:42:08;;;;;;;8.65;3.20;;;;;;;21.65;45.80;96514.63;5034010;28;20396;-29
2023/05/09 08:44:33;;;;;;;5.90;3.00;;;;;;;21.76;45.73;96498.81;5034148;28;20029;-29
2023/05/09 08:47:00;;;;;;;6.78;3.38;;;;;;;21.72;45.82;96503.84;5033557;28;20022;-29
2023/05/09 08:49:26;;;;;;;9.13;4.22;;;;;;;21.68;45.92;96505.34;5033625;28;20488;-29
2023/05/09 08:51:53;;;;;;;6.13;4.22;;;;;;;21.75;46.08;96502.13;5033993;28;20120;-29
2023/05/09 08:54:19;;;;;;;10.85;4.95;;;;;;;21.78;45.92;96493.56;5033513;28;20521;-29
2023/05/09 08:56:45;;;;;;;6.32;4.20;;;;;;;21.71;45.86;96494.06;5033819;28;20111;-29
2023/05/09 08:59:12;;;;;;;6.72;3.63;;;;;;;21.62;46.08;96491.53;5033515;28;20457;-30
2023/05/09 09:01:39;;;;;;;4.95;3.55;;;;;;;21.62;46.12;96494.31;5033647;28;20109;-30
2023/05/09 09:04:06;;;;;;;6.55;3.88;;;;;;;21.61;46.59;96497.56;5033336;28;20493;-29
2023/05/09 09:06:35;;;;;;;4.57;3.28;;;;;;;21.68;46.39;96495.06;5032098;28;20083;-29
2023/05/09 09:09:07;;;;;;;6.07;3.65;;;;;;;21.55;46.88;96494.78;5033617;28;20024;-29
2023/05/09 09:11:34;;;;;;;7.43;3.07;;;;;;;21.64;46.74;96502.81;5034154;28;20021;-29
2023/05/09 09:14:04;;;;;;;3.60;3.03;;;;;;;21.67;46.26;96496.31;5033870;28;20021;-30
2023/05/09 09:16:31;;;;;;;17.58;5.32;;;;;;;21.78;46.14;96479.75;5033252;28;20381;-29
2023/05/09 09:18:57;;;;;;;13.88;4.63;;;;;;;21.75;46.03;96486.31;5042162;28;20032;-29
2023/05/09 09:21:23;;;;;;;11.50;4.30;;;;;;;21.77;46.22;96494.81;5035343;28;20033;-30
2023/05/09 09:23:51;;;;;;;11.20;4.20;;;;;;;21.70;46.06;96492.56;5033175;28;20075;-29
2023/05/09 09:26:17;;;;;;;9.55;3.95;;;;;;;21.77;45.71;96483.78;5033208;28;20053;-29
2023/05/09 09:28:42;;;;;;;12.75;5.07;;;;;;;21.81;46.15;96478.78;5031845;28;20076;-29
2023/05/09 09:31:31;;;;;;;13.77;4.60;;;;;;;21.90;45.79;96480.53;5033159;28;20105;-29
2023/05/09 09:34:01;;;;;;;16.58;4.10;;;;;;;21.73;45.54;96482.53;5039775;28;20566;-29
2023/05/09 09:36:28;;;;;;;9.15;3.70;;;;;;;21.82;45.65;96479.53;5033121;28;20021;-29
2023/05/09 09:39:05;;;;;;;9.60;3.63;;;;;;;21.82;45.70;96474.75;5037134;28;20036;-29
2023/05/09 09:41:35;;;;;;;67.68;9.82;;;;;;;21.86;45.59;96458.72;5033104;28;20025;-29
2023/05/09 09:44:15;;;;;;;12.93;4.32;;;;;;;21.73;44.58;96461.22;5032854;28;20036;-31
2023/05/09 09:46:41;;;;;;;9.18;4.38;;;;;;;21.76;44.64;96448.41;5032851;28;20100;-29
2023/05/09 09:49:14;;;;;;;11.30;4.10;;;;;;;21.85;44.64;96448.91;5032841;28;20025;-29
2023/05/09 09:51:41;;;;;;;7.80;3.40;;;;;;;21.86;44.56;96453.19;5032793;28;20021;-29
2023/05/09 09:54:11;;;;;;;10.00;3.17;;;;;;;21.86;45.17;96442.16;5032744;28;20043;-30
2023/05/09 09:56:41;;;;;;;4.75;3.13;;;;;;;21.80;45.12;96438.63;5033013;28;20511;-29
2023/05/09 09:59:11;;;;;;;17.65;4.57;;;;;;;21.89;45.05;96440.38;5032854;28;20168;-30
2023/05/09 10:01:58;;;;;;;12.02;3.83;;;;;;;21.91;45.42;96437.13;5032704;28;20106;-29
2023/05/09 10:04:25;;;;;;;10.57;3.85;;;;;;;21.91;45.39;96439.88;5032710;28;20489;-29
2023/05/09 10:06:52;;;;;;;11.05;3.47;;;;;;;21.86;45.19;96435.88;5032692;28;20488;-31
2023/05/09 10:09:20;;;;;;;16.92;4.82;;;;;;;21.91;45.40;96435.09;5032855;28;20026;-29
2023/05/09 10:11:47;;;;;;;16.00;4.57;;;;;;;21.93;45.79;96437.38;5032744;28;20025;-29
2023/05/09 10:14:13;;;;;;;11.32;4.03;;;;;;;21.96;45.03;96436.38;5032959;28;20033;-29
2023/05/09 10:16:38;;;;;;;16.42;4.03;;;;;;;21.91;45.20;96437.13;5032587;28;20029;-29
2023/05/09 10:19:05;;;;;;;6.78;3.28;;;;;;;21.96;44.73;96436.38;5033116;28;20021;-30
2023/05/09 10:21:31;;;;;;;10.88;3.83;;;;;;;22.04;45.00;96437.41;5032595;28;20346;-30
2023/05/09 10:23:59;;;;;;;14.35;4.05;;;;;;;22.04;45.03;96445.69;5032513;28;20103;-30
2023/05/09 10:26:27;;;;;;;6.97;4.13;;;;;;;22.00;45.08;96440.44;5032700;28;20056;-29
2023/05/09 10:28:55;;;;;;;9.85;3.92;;;;;;;22.04;45.03;96440.16;5032547;28;20498;-29
2023/05/09 10:31:25;;;;;;;4.85;3.22;;;;;;;21.99;45.07;96438.16;5032666;28;20045;-29
2023/05/09 10:33:51;;;;;;;5.68;3.20;;;;;;;21.94;44.30;96428.59;5038289;28;20025;-29
2023/05/09 10:36:19;;;;;;;10.63;3.58;;;;;;;21.91;44.29;96423.31;5032802;28;20021;-29
2023/05/09 10:38:46;;;;;;;6.25;3.30;;;;;;;22.05;44.51;96431.38;5032398;28;20063;-29
2023/05/09 10:41:12;;;;;;;3.47;3.15;;;;;;;22.04;45.02;96426.34;5032442;28;20116;-29
2023/05/09 10:43:38;;;;;;;4.03;2.85;;;;;;;22.05;45.16;96425.09;5033325;28;20026;-30
2023/05/09 10:46:04;;;;;;;6.45;3.85;;;;;;;22.00;45.21;96423.09;5035998;28;20507;-29
2023/05/09 10:48:32;;;;;;;5.88;3.10;;;;;;;22.06;45.32;96429.38;5036032;28;20037;-29
2023/05/09 10:51:00;;;;;;;6.03;3.17;;;;;;;22.09;45.44;96417.31;5035594;28;20021;-29
2023/05/09 10:53:39;;;;;;;4.13;3.20;;;;;;;22.20;45.13;96428.34;5035711;28;20083;-29
2023/05/09 10:56:05;;;;;;;4.60;3.28;;;;;;;22.16;45.02;96414.03;5035563;28;20053;-29
2023/05/09 10:58:32;;;;;;;3.25;2.90;;;;;;;22.25;44.90;96405.50;5036043;28;20032;-30
2023/05/09 11:01:03;;;;;;;7.30;3.00;;;;;;;22.24;44.67;96404.00;5035706;28;20416;-31
2023/05/09 11:03:52;;;;;;;5.28;3.42;;;;;;;22.22;45.44;96401.00;5042807;28;20036;-29
2023/05/09 11:06:49;;;;;;;6.18;3.35;;;;;;;22.18;44.99;96403.25;5035318;28;20026;-29
2023/05/09 11:09:23;;;;;;;4.47;3.40;;;;;;;22.19;45.41;96396.47;5035303;28;20037;-29
2023/05/09 11:12:13;;;;;;;4.80;3.58;;;;;;;22.22;45.66;96401.00;5035710;28;20026;-29
2023/05/09 11:14:40;;;;;;;5.10;3.22;;;;;;;22.17;45.40;96394.19;5042658;28;20033;-29
2023/05/09 11:17:07;;;;;;;5.07;3.30;;;;;;;22.27;45.27;96391.16;5035705;28;20022;-30
2023/05/09 11:19:45;;;;;;;8.70;3.15;;;;;;;22.29;45.33;96383.13;5037976;28;20047;-29
2023/05/09 11:22:18;;;;;;;3.60;2.95;;;;;;;22.26;45.25;96393.19;5034270;28;20343;-30
2023/05/09 11:25:05;;;;;;;7.65;2.78;;;;;;;22.32;45.85;96391.19;5035696;28;20044;-31
2023/05/09 11:27:43;;;;;;;6.25;2.80;;;;;;;22.28;45.54;96390.66;5035430;28;20033;-29
2023/05/09 11:30:14;;;;;;;4.25;3.22;;;;;;;22.29;45.40;96383.88;5040204;28;20017;-29
2023/05/09 11:32:45;;;;;;;3.17;2.75;;;;;;;22.27;45.40;96388.41;5035708;28;20032;-29